Time;durP1;ratioP1;P1;durP2;ratioP2;P2;SDS_P1;SDS_P2;PMS_P1;PMS_P2;Temp;Humidity;BMP_temperature;BMP_pressure;BME280_temperature;BME280_humidity;BME280_pressure;Samples;Min_cycle;Max_cycle;Signal;HPM_P1;HPM_P2
2022/12/14 00:00:34;;;;;;;32.90;16.93;;;;;;;;;;6697701;28;20202;-89
2022/12/14 00:03:45;;;;;;;28.37;16.20;;;;;;;;;;6700376;28;20171;-88
2022/12/14 00:06:55;;;;;;;29.93;17.13;;;;;;;;;;6679198;28;20202;-88
2022/12/14 00:10:06;;;;;;;28.27;16.20;;;;;;;;;;6676404;28;20262;-88
2022/12/14 00:13:16;;;;;;;33.47;16.67;;;;;;;;;;6676522;28;20178;-88
2022/12/14 00:16:27;;;;;;;32.07;16.83;;;;;;;;;;6679386;28;20243;-88
2022/12/14 00:19:37;;;;;;;31.63;16.87;;;;;;;;;;6680020;28;20516;-88
2022/12/14 00:22:48;;;;;;;29.50;16.27;;;;;;;;;;6678917;28;20163;-88
2022/12/14 00:26:05;;;;;;;30.87;17.03;;;;;;;;;;6679003;28;20201;-87
2022/12/14 00:29:15;;;;;;;25.70;14.57;;;;;;;;;;6678106;28;20195;-87
2022/12/14 00:32:26;;;;;;;31.43;16.37;;;;;;;;;;6678128;28;20623;-87
2022/12/14 00:35:36;;;;;;;24.87;15.17;;;;;;;;;;6677452;28;20170;-88
2022/12/14 00:38:46;;;;;;;26.37;14.87;;;;;;;;;;6677756;28;20592;-87
2022/12/14 00:41:57;;;;;;;29.83;15.23;;;;;;;;;;6677961;28;20249;-87
2022/12/14 00:45:07;;;;;;;22.60;13.73;;;;;;;;;;6677150;28;20227;-87
2022/12/14 00:48:18;;;;;;;25.50;14.73;;;;;;;;;;6662525;28;20208;-88
2022/12/14 00:51:29;;;;;;;30.77;16.03;;;;;;;;;;6625216;28;20167;-87
2022/12/14 00:54:39;;;;;;;26.10;14.43;;;;;;;;;;6624492;28;20649;-88
2022/12/14 00:57:50;;;;;;;26.50;14.63;;;;;;;;;;6624961;28;20262;-87
2022/12/14 01:01:01;;;;;;;26.87;13.93;;;;;;;;;;6623410;28;20219;-88
2022/12/14 01:04:20;;;;;;;23.17;14.13;;;;;;;;;;6624066;28;20196;-88
2022/12/14 01:07:30;;;;;;;26.87;13.67;;;;;;;;;;6624583;28;20584;-88
2022/12/14 01:10:40;;;;;;;25.57;14.37;;;;;;;;;;6624668;28;20187;-88
2022/12/14 01:13:51;;;;;;;28.77;15.03;;;;;;;;;;6623996;28;20257;-88
2022/12/14 01:17:01;;;;;;;23.53;12.67;;;;;;;;;;6624311;28;20195;-87
2022/12/14 01:20:11;;;;;;;25.17;13.70;;;;;;;;;;6624458;28;20176;-88
2022/12/14 01:23:22;;;;;;;28.50;15.33;;;;;;;;;;6623989;28;20175;-88
2022/12/14 01:26:36;;;;;;;26.40;14.27;;;;;;;;;;6623732;28;20678;-87
2022/12/14 01:29:46;;;;;;;28.93;14.67;;;;;;;;;;6624320;28;20172;-88
2022/12/14 01:32:57;;;;;;;22.73;13.60;;;;;;;;;;6623811;28;20194;-88
2022/12/14 01:36:18;;;;;;;24.93;13.73;;;;;;;;;;6623286;28;20232;-88
2022/12/14 01:39:29;;;;;;;22.27;12.83;;;;;;;;;;6623361;28;20179;-87
2022/12/14 01:42:39;;;;;;;23.30;13.10;;;;;;;;;;6623176;28;20203;-88
2022/12/14 01:45:52;;;;;;;19.93;12.37;;;;;;;;;;6623796;28;20192;-88
2022/12/14 01:49:09;;;;;;;25.30;14.00;;;;;;;;;;6622255;28;20630;-88
2022/12/14 01:52:38;;;;;;;25.93;13.50;;;;;;;;;;6622996;28;20172;-88
2022/12/14 01:55:51;;;;;;;22.83;12.57;;;;;;;;;;6621839;28;20609;-88
2022/12/14 01:59:03;;;;;;;26.23;13.80;;;;;;;;;;6634356;28;20183;-88
2022/12/14 02:02:16;;;;;;;27.60;14.23;;;;;;;;;;6649158;28;20675;-87
2022/12/14 02:05:27;;;;;;;28.13;13.93;;;;;;;;;;6648871;28;20634;-88
2022/12/14 02:08:38;;;;;;;28.73;15.47;;;;;;;;;;6648757;28;20582;-87
2022/12/14 02:11:54;;;;;;;25.23;13.77;;;;;;;;;;6649412;28;20171;-88
2022/12/14 02:15:05;;;;;;;25.20;14.10;;;;;;;;;;6649062;28;20175;-87
2022/12/14 02:18:18;;;;;;;25.20;14.27;;;;;;;;;;6648343;28;20224;-87
2022/12/14 02:21:40;;;;;;;26.97;14.33;;;;;;;;;;6648504;28;20167;-87
2022/12/14 02:24:51;;;;;;;26.80;14.30;;;;;;;;;;6648611;28;20167;-87
2022/12/14 02:28:19;;;;;;;30.50;15.57;;;;;;;;;;6648191;28;20203;-87
2022/12/14 02:31:36;;;;;;;26.63;14.97;;;;;;;;;;6648620;28;20170;-87
2022/12/14 02:34:58;;;;;;;28.27;15.37;;;;;;;;;;6647839;28;20238;-87
2022/12/14 02:38:21;;;;;;;28.90;15.50;;;;;;;;;;6648497;28;20223;-87
2022/12/14 02:41:37;;;;;;;40.33;18.67;;;;;;;;;;6648419;28;20521;-87
2022/12/14 02:44:55;;;;;;;50.37;21.17;;;;;;;;;;6648132;28;20167;-87
2022/12/14 02:48:13;;;;;;;49.87;20.30;;;;;;;;;;6647806;28;20252;-86
2022/12/14 02:51:41;;;;;;;42.50;18.60;;;;;;;;;;6646650;28;20228;-87
2022/12/14 02:55:14;;;;;;;43.20;18.63;;;;;;;;;;6647610;28;20159;-86
2022/12/14 02:58:27;;;;;;;39.00;18.53;;;;;;;;;;6648247;28;20193;-86
2022/12/14 03:01:38;;;;;;;35.87;18.00;;;;;;;;;;6647571;28;20171;-86
2022/12/14 03:04:49;;;;;;;35.83;18.33;;;;;;;;;;6647738;28;20171;-87
2022/12/14 03:08:07;;;;;;;36.83;17.27;;;;;;;;;;6647762;28;20194;-86
2022/12/14 03:11:24;;;;;;;29.83;16.57;;;;;;;;;;6647262;28;20217;-86
2022/12/14 03:14:43;;;;;;;34.10;17.83;;;;;;;;;;6647785;28;20219;-86
2022/12/14 03:17:55;;;;;;;32.97;17.43;;;;;;;;;;6647775;28;20236;-86
2022/12/14 03:21:09;;;;;;;32.87;17.23;;;;;;;;;;6646231;28;20237;-86
2022/12/14 03:24:22;;;;;;;40.23;18.07;;;;;;;;;;6647334;28;20167;-86
2022/12/14 03:27:37;;;;;;;35.27;17.47;;;;;;;;;;6647347;28;20238;-86
2022/12/14 03:30:50;;;;;;;38.13;17.97;;;;;;;;;;6647178;28;20250;-89
2022/12/14 03:34:02;;;;;;;34.53;18.60;;;;;;;;;;6647525;28;20551;-86
2022/12/14 03:37:16;;;;;;;35.10;17.67;;;;;;;;;;6646872;28;20227;-86
2022/12/14 03:40:30;;;;;;;38.00;17.93;;;;;;;;;;6646704;28;20171;-86
2022/12/14 03:43:57;;;;;;;31.20;16.73;;;;;;;;;;6646903;28;20178;-86
2022/12/14 03:47:16;;;;;;;34.90;16.33;;;;;;;;;;6646866;28;20232;-86
2022/12/14 03:50:27;;;;;;;39.23;16.87;;;;;;;;;;6652204;28;20266;-86
2022/12/14 03:53:37;;;;;;;35.90;17.77;;;;;;;;;;6652773;28;20186;-86
2022/12/14 03:56:56;;;;;;;37.67;19.03;;;;;;;;;;6651885;28;20224;-86
2022/12/14 04:00:08;;;;;;;42.23;19.63;;;;;;;;;;6652248;28;20164;-86
2022/12/14 04:03:25;;;;;;;40.57;19.23;;;;;;;;;;6651860;28;20232;-86
2022/12/14 04:06:42;;;;;;;40.50;19.40;;;;;;;;;;6650889;28;20199;-86
2022/12/14 04:10:00;;;;;;;41.60;21.00;;;;;;;;;;6651736;28;20174;-86
2022/12/14 04:20:15;;;;;;;48.20;21.23;;;;;;;;;;6651260;28;20623;-86
2022/12/14 04:27:08;;;;;;;57.80;27.73;;;;;;;;;;6650811;28;20246;-86
2022/12/14 04:30:19;;;;;;;53.93;27.57;;;;;;;;;;6650950;28;20171;-86
2022/12/14 04:33:46;;;;;;;66.03;30.47;;;;;;;;;;6650648;28;20205;-86
2022/12/14 04:36:58;;;;;;;77.43;35.57;;;;;;;;;;6650485;28;20226;-86
2022/12/14 04:40:14;;;;;;;77.90;36.47;;;;;;;;;;6651066;28;20175;-86
2022/12/14 04:43:28;;;;;;;86.10;38.73;;;;;;;;;;6650777;28;20233;-87
2022/12/14 04:46:39;;;;;;;71.33;33.13;;;;;;;;;;6650994;28;20207;-86
2022/12/14 04:49:56;;;;;;;82.47;37.60;;;;;;;;;;6650970;28;20528;-86
2022/12/14 04:53:10;;;;;;;87.97;35.87;;;;;;;;;;6650761;28;20254;-86
2022/12/14 04:56:20;;;;;;;91.00;37.53;;;;;;;;;;6649395;28;20689;-86
2022/12/14 04:59:31;;;;;;;92.43;36.47;;;;;;;;;;6649486;28;20179;-87
2022/12/14 05:02:41;;;;;;;70.30;34.17;;;;;;;;;;6650894;28;20228;-86
2022/12/14 05:05:56;;;;;;;145.23;50.30;;;;;;;;;;6649899;28;20215;-86
2022/12/14 05:09:06;;;;;;;117.67;45.83;;;;;;;;;;6650379;28;20171;-86
2022/12/14 05:12:29;;;;;;;122.77;47.30;;;;;;;;;;6649843;28;20174;-87
2022/12/14 05:15:41;;;;;;;147.10;49.33;;;;;;;;;;6650076;28;20503;-87
2022/12/14 05:18:52;;;;;;;164.93;56.90;;;;;;;;;;6649922;28;20253;-86
2022/12/14 05:22:06;;;;;;;166.67;54.63;;;;;;;;;;6649820;28;20504;-87
2022/12/14 05:25:17;;;;;;;145.90;51.03;;;;;;;;;;6649559;28;20178;-87
2022/12/14 05:28:27;;;;;;;184.30;67.17;;;;;;;;;;6649070;28;20211;-89
2022/12/14 05:31:38;;;;;;;139.53;53.40;;;;;;;;;;6649760;28;20186;-87
2022/12/14 05:34:48;;;;;;;166.43;58.47;;;;;;;;;;6649627;28;20171;-86
2022/12/14 05:37:59;;;;;;;173.97;57.73;;;;;;;;;;6649415;28;20272;-87
2022/12/14 05:41:09;;;;;;;136.10;52.13;;;;;;;;;;6649539;28;20533;-87
2022/12/14 05:44:19;;;;;;;156.17;61.00;;;;;;;;;;6648107;28;20210;-86
2022/12/14 05:47:30;;;;;;;142.43;56.20;;;;;;;;;;6648707;28;20246;-87
2022/12/14 05:50:40;;;;;;;145.70;55.40;;;;;;;;;;6648955;28;20181;-86
2022/12/14 05:53:50;;;;;;;128.47;54.50;;;;;;;;;;6648832;28;20621;-86
2022/12/14 05:57:01;;;;;;;143.03;59.10;;;;;;;;;;6648328;28;20182;-87
2022/12/14 06:00:11;;;;;;;196.47;72.07;;;;;;;;;;6648960;28;20170;-86
2022/12/14 06:03:21;;;;;;;201.60;74.00;;;;;;;;;;6648654;28;20171;-86
2022/12/14 06:06:32;;;;;;;163.67;63.57;;;;;;;;;;6648202;28;20191;-87
2022/12/14 06:09:43;;;;;;;160.93;59.20;;;;;;;;;;6647865;28;20555;-86
2022/12/14 06:12:53;;;;;;;101.17;45.43;;;;;;;;;;6648281;28;20175;-86
2022/12/14 06:16:07;;;;;;;99.07;41.40;;;;;;;;;;6648276;28;20167;-87
2022/12/14 06:19:18;;;;;;;101.00;41.07;;;;;;;;;;6648395;28;20217;-86
2022/12/14 06:22:28;;;;;;;105.40;42.23;;;;;;;;;;6647968;28;20171;-87
2022/12/14 06:25:38;;;;;;;102.37;43.03;;;;;;;;;;6646751;28;20175;-86
2022/12/14 06:28:49;;;;;;;107.27;41.23;;;;;;;;;;6647823;28;20190;-86
2022/12/14 06:32:00;;;;;;;92.07;38.83;;;;;;;;;;6647769;28;20163;-86
2022/12/14 06:35:10;;;;;;;84.60;37.27;;;;;;;;;;6647699;28;20171;-87
2022/12/14 06:38:20;;;;;;;87.67;39.13;;;;;;;;;;6647646;28;20253;-86
2022/12/14 06:41:31;;;;;;;86.80;39.33;;;;;;;;;;6649101;28;20171;-87
2022/12/14 06:44:41;;;;;;;86.00;40.13;;;;;;;;;;6647501;28;20167;-86
2022/12/14 06:47:51;;;;;;;85.93;42.53;;;;;;;;;;6647825;28;20244;-86
2022/12/14 06:51:02;;;;;;;108.60;44.17;;;;;;;;;;6647440;28;20507;-86
2022/12/14 06:54:14;;;;;;;82.80;38.67;;;;;;;;;;6647038;28;20260;-86
2022/12/14 06:57:24;;;;;;;73.77;35.80;;;;;;;;;;6647640;28;20518;-87
2022/12/14 07:00:34;;;;;;;82.70;34.20;;;;;;;;;;6647357;28;20163;-89
2022/12/14 07:03:48;;;;;;;76.90;34.23;;;;;;;;;;6647219;28;20205;-87
2022/12/14 07:06:59;;;;;;;79.13;35.97;;;;;;;;;;6646933;28;20648;-86
2022/12/14 07:10:10;;;;;;;67.77;32.00;;;;;;;;;;6647608;28;20276;-86
2022/12/14 07:13:20;;;;;;;72.17;34.47;;;;;;;;;;6647251;28;20174;-86
2022/12/14 07:16:30;;;;;;;77.27;34.83;;;;;;;;;;6647065;28;20532;-86
2022/12/14 07:19:44;;;;;;;64.33;30.73;;;;;;;;;;6646833;28;20179;-86
2022/12/14 07:22:54;;;;;;;68.17;32.10;;;;;;;;;;6647290;28;20199;-86
2022/12/14 07:26:15;;;;;;;55.07;27.90;;;;;;;;;;6647023;28;20550;-86
2022/12/14 07:29:26;;;;;;;56.47;28.57;;;;;;;;;;6634472;28;20199;-86
2022/12/14 07:32:36;;;;;;;57.57;29.07;;;;;;;;;;6647932;28;20588;-86
2022/12/14 07:35:46;;;;;;;69.50;32.00;;;;;;;;;;6646922;28;20202;-87
2022/12/14 07:38:57;;;;;;;73.93;34.03;;;;;;;;;;6647330;28;20152;-87
2022/12/14 07:42:07;;;;;;;71.40;33.17;;;;;;;;;;6647016;28;20620;-86
2022/12/14 07:45:17;;;;;;;107.17;41.80;;;;;;;;;;6647255;28;20171;-87
2022/12/14 07:48:28;;;;;;;93.50;40.03;;;;;;;;;;6647503;28;20568;-87
2022/12/14 07:51:43;;;;;;;103.87;46.93;;;;;;;;;;6640976;28;20262;-91
2022/12/14 07:54:53;;;;;;;134.70;59.67;;;;;;;;;;6630303;28;20187;-88
2022/12/14 07:58:03;;;;;;;150.73;61.90;;;;;;;;;;6627102;28;20172;-87
2022/12/14 08:01:15;;;;;;;123.37;57.43;;;;;;;;;;6626421;28;20183;-87
2022/12/14 08:04:26;;;;;;;110.60;46.57;;;;;;;;;;6631842;28;20179;-87
2022/12/14 08:07:37;;;;;;;104.83;45.70;;;;;;;;;;6641794;28;20195;-87
2022/12/14 08:10:47;;;;;;;108.97;46.50;;;;;;;;;;6633926;28;20210;-88
2022/12/14 08:13:59;;;;;;;123.60;50.13;;;;;;;;;;6633487;28;20172;-87
2022/12/14 08:17:09;;;;;;;130.23;53.57;;;;;;;;;;6631387;28;20225;-87
2022/12/14 08:20:19;;;;;;;107.23;46.30;;;;;;;;;;6632362;28;20626;-87
2022/12/14 08:23:30;;;;;;;91.53;43.93;;;;;;;;;;6639210;28;20404;-87
2022/12/14 08:26:41;;;;;;;88.40;42.77;;;;;;;;;;6623567;28;20262;-87
2022/12/14 08:29:51;;;;;;;100.40;45.43;;;;;;;;;;6624738;28;20234;-88
2022/12/14 08:33:02;;;;;;;77.83;40.67;;;;;;;;;;6621334;28;20183;-87
2022/12/14 08:36:23;;;;;;;83.60;40.90;;;;;;;;;;6647092;28;20297;-91
2022/12/14 08:39:33;;;;;;;82.27;37.70;;;;;;;;;;6630461;28;20207;-87
2022/12/14 08:42:43;;;;;;;75.33;38.40;;;;;;;;;;6633901;28;20171;-87
2022/12/14 08:45:54;;;;;;;78.50;40.73;;;;;;;;;;6635195;28;20264;-87
2022/12/14 08:49:04;;;;;;;85.77;42.07;;;;;;;;;;6633988;28;20179;-88
2022/12/14 08:52:15;;;;;;;92.70;45.83;;;;;;;;;;6636439;28;20182;-89
2022/12/14 08:55:26;;;;;;;85.83;45.13;;;;;;;;;;6634980;28;20172;-89
2022/12/14 08:58:37;;;;;;;84.17;43.17;;;;;;;;;;6635531;28;20254;-87
2022/12/14 09:01:48;;;;;;;69.00;34.80;;;;;;;;;;6637215;28;20180;-87
2022/12/14 09:04:58;;;;;;;79.90;40.80;;;;;;;;;;6640621;28;20188;-86
2022/12/14 09:08:08;;;;;;;79.87;39.23;;;;;;;;;;6629188;28;20301;-86
2022/12/14 09:11:20;;;;;;;83.20;41.47;;;;;;;;;;6636544;28;20167;-86
2022/12/14 09:14:30;;;;;;;71.70;36.30;;;;;;;;;;6642049;28;20216;-86
2022/12/14 09:17:40;;;;;;;124.33;42.23;;;;;;;;;;6645406;28;20167;-86
2022/12/14 09:20:54;;;;;;;89.50;37.97;;;;;;;;;;6642731;28;20259;-86
2022/12/14 09:24:05;;;;;;;75.53;33.97;;;;;;;;;;6640327;28;20294;-86
2022/12/14 09:27:15;;;;;;;78.50;36.43;;;;;;;;;;6649400;28;20232;-87
2022/12/14 09:30:26;;;;;;;58.77;27.80;;;;;;;;;;6649936;28;20178;-86
2022/12/14 09:33:36;;;;;;;43.50;22.67;;;;;;;;;;6648548;28;20167;-87
2022/12/14 09:36:47;;;;;;;76.07;34.77;;;;;;;;;;6645340;28;20237;-88
2022/12/14 09:39:57;;;;;;;84.87;41.40;;;;;;;;;;6634991;28;20176;-86
2022/12/14 09:43:10;;;;;;;72.47;31.40;;;;;;;;;;6634319;28;20265;-86
2022/12/14 09:46:36;;;;;;;56.17;26.80;;;;;;;;;;6636623;28;20284;-86
2022/12/14 09:49:49;;;;;;;72.67;35.20;;;;;;;;;;6642381;28;20688;-85
2022/12/14 09:53:00;;;;;;;55.67;29.60;;;;;;;;;;6635698;28;20167;-86
2022/12/14 09:56:16;;;;;;;63.60;29.73;;;;;;;;;;6635027;28;20633;-86
2022/12/14 09:59:27;;;;;;;58.47;29.43;;;;;;;;;;6641815;28;20207;-86
2022/12/14 10:02:47;;;;;;;48.17;25.30;;;;;;;;;;6649034;28;20174;-86
2022/12/14 10:06:16;;;;;;;64.37;32.50;;;;;;;;;;6640841;28;20179;-86
2022/12/14 10:09:36;;;;;;;76.77;35.80;;;;;;;;;;6627582;28;20171;-86
2022/12/14 10:13:04;;;;;;;58.27;27.33;;;;;;;;;;6649514;28;20175;-87
2022/12/14 10:16:24;;;;;;;73.00;34.80;;;;;;;;;;6633398;28;20181;-86
2022/12/14 10:19:39;;;;;;;71.63;33.93;;;;;;;;;;6640592;28;20211;-88
2022/12/14 10:22:51;;;;;;;61.33;27.30;;;;;;;;;;6640936;28;20171;-87
2022/12/14 10:26:06;;;;;;;60.30;28.63;;;;;;;;;;6635800;28;20208;-87
2022/12/14 10:29:26;;;;;;;59.63;28.47;;;;;;;;;;6635196;28;20230;-87
2022/12/14 10:32:37;;;;;;;53.50;28.83;;;;;;;;;;6628912;28;20172;-87
2022/12/14 10:36:06;;;;;;;61.43;30.57;;;;;;;;;;6629075;28;20172;-87
2022/12/14 10:39:22;;;;;;;49.03;25.73;;;;;;;;;;6623372;28;20171;-87
2022/12/14 10:42:38;;;;;;;54.87;29.37;;;;;;;;;;6623548;28;20621;-87
2022/12/14 10:45:51;;;;;;;58.80;28.00;;;;;;;;;;6633006;28;20575;-87
2022/12/14 10:49:07;;;;;;;51.90;27.17;;;;;;;;;;6630005;28;20187;-87
2022/12/14 10:52:18;;;;;;;56.07;28.00;;;;;;;;;;6634218;28;20171;-87
2022/12/14 10:55:33;;;;;;;48.03;25.37;;;;;;;;;;6634374;28;20176;-87
2022/12/14 10:58:44;;;;;;;52.20;26.23;;;;;;;;;;6635493;28;20180;-87
2022/12/14 11:01:57;;;;;;;54.47;26.50;;;;;;;;;;6628675;28;20258;-87
2022/12/14 11:05:34;;;;;;;49.60;24.37;;;;;;;;;;6622756;28;20163;-87
2022/12/14 11:08:46;;;;;;;59.93;27.77;;;;;;;;;;6619359;28;20206;-86
2022/12/14 11:11:58;;;;;;;63.10;29.93;;;;;;;;;;6634877;28;20171;-85
2022/12/14 11:15:21;;;;;;;51.03;22.70;;;;;;;;;;6634193;28;20167;-86
2022/12/14 11:18:32;;;;;;;55.50;25.87;;;;;;;;;;6632758;28;20172;-86
2022/12/14 11:21:43;;;;;;;58.43;27.67;;;;;;;;;;6631119;28;20541;-86
2022/12/14 11:24:53;;;;;;;49.43;24.47;;;;;;;;;;6632215;28;20171;-86
2022/12/14 11:28:21;;;;;;;52.13;23.83;;;;;;;;;;6631696;28;20207;-86
2022/12/14 11:31:57;;;;;;;49.13;23.20;;;;;;;;;;6637441;28;20186;-86
2022/12/14 11:35:14;;;;;;;58.13;28.60;;;;;;;;;;6635598;28;20629;-86
2022/12/14 11:38:25;;;;;;;51.10;27.80;;;;;;;;;;6645798;28;20309;-86
2022/12/14 11:41:40;;;;;;;58.67;27.10;;;;;;;;;;6646788;28;20188;-86
2022/12/14 11:44:51;;;;;;;45.93;20.40;;;;;;;;;;6642036;28;20251;-86
2022/12/14 11:48:17;;;;;;;50.53;24.77;;;;;;;;;;6630906;28;20668;-86
2022/12/14 11:51:27;;;;;;;53.07;27.30;;;;;;;;;;6632293;28;20183;-86
2022/12/14 11:54:39;;;;;;;57.47;28.77;;;;;;;;;;6633606;28;20318;-86
2022/12/14 12:14:54;;;;;;;58.27;33.23;;;;;;;;;;6556659;27;20597;-86
2022/12/14 12:18:07;;;;;;;58.40;28.70;;;;;;;;;;6573836;28;20542;-87
2022/12/14 12:21:26;;;;;;;47.83;25.20;;;;;;;;;;6574269;28;20181;-87
2022/12/14 12:24:41;;;;;;;53.47;28.73;;;;;;;;;;6575796;28;20190;-86
2022/12/14 12:27:58;;;;;;;53.90;28.80;;;;;;;;;;6578076;28;20192;-88
2022/12/14 12:31:13;;;;;;;64.43;30.70;;;;;;;;;;6574111;28;20178;-87
2022/12/14 12:34:32;;;;;;;63.10;31.60;;;;;;;;;;6574877;28;20631;-87
2022/12/14 12:37:46;;;;;;;43.90;22.03;;;;;;;;;;6564331;28;20246;-87
2022/12/14 12:40:56;;;;;;;60.10;31.43;;;;;;;;;;6576908;28;20544;-86
2022/12/14 12:44:21;;;;;;;58.73;28.07;;;;;;;;;;6574823;28;20210;-86
2022/12/14 12:47:36;;;;;;;74.27;36.47;;;;;;;;;;6569795;28;20603;-87
2022/12/14 12:50:48;;;;;;;61.20;30.80;;;;;;;;;;6570661;28;20186;-86
2022/12/14 12:54:00;;;;;;;67.80;35.33;;;;;;;;;;6578128;28;20184;-86
2022/12/14 12:57:11;;;;;;;71.03;33.20;;;;;;;;;;6576729;28;20181;-87
2022/12/14 13:00:24;;;;;;;55.70;29.03;;;;;;;;;;6573509;28;20235;-86
2022/12/14 13:03:36;;;;;;;59.83;29.03;;;;;;;;;;6577125;28;20217;-86
2022/12/14 13:06:52;;;;;;;63.50;31.47;;;;;;;;;;6584904;28;20205;-86
2022/12/14 13:10:02;;;;;;;52.67;26.67;;;;;;;;;;6580665;28;20178;-86
2022/12/14 13:13:14;;;;;;;66.40;32.37;;;;;;;;;;6572860;28;20237;-87
2022/12/14 13:16:28;;;;;;;88.10;39.60;;;;;;;;;;6547127;28;20185;-86
2022/12/14 13:19:42;;;;;;;56.37;28.03;;;;;;;;;;6551875;28;20614;-87
2022/12/14 13:22:53;;;;;;;82.33;41.67;;;;;;;;;;6558784;28;20214;-86
2022/12/14 13:26:09;;;;;;;378.77;115.67;;;;;;;;;;6559966;28;20174;-87
2022/12/14 13:29:34;;;;;;;126.90;53.67;;;;;;;;;;6555316;28;20512;-87
2022/12/14 13:32:50;;;;;;;70.07;33.50;;;;;;;;;;6560225;28;20255;-87
2022/12/14 13:36:16;;;;;;;63.43;31.40;;;;;;;;;;6556910;28;20227;-86
2022/12/14 13:39:36;;;;;;;81.50;39.33;;;;;;;;;;6551342;28;20765;-87
2022/12/14 13:42:55;;;;;;;69.77;34.60;;;;;;;;;;6557704;28;20313;-86
2022/12/14 13:46:34;;;;;;;58.07;29.30;;;;;;;;;;6547608;28;20186;-86
2022/12/14 13:49:55;;;;;;;70.17;33.20;;;;;;;;;;6561339;28;20197;-87
2022/12/14 13:53:13;;;;;;;70.10;35.53;;;;;;;;;;6560685;28;20186;-87
2022/12/14 13:56:26;;;;;;;72.30;34.07;;;;;;;;;;6560085;28;20178;-88
2022/12/14 13:59:41;;;;;;;75.97;36.57;;;;;;;;;;6560592;28;20518;-88
2022/12/14 14:02:55;;;;;;;97.27;43.73;;;;;;;;;;6569560;28;20213;-88
2022/12/14 14:06:31;;;;;;;76.67;37.43;;;;;;;;;;6552873;28;20181;-88
2022/12/14 14:09:47;;;;;;;74.73;37.23;;;;;;;;;;6563663;28;20257;-88
2022/12/14 14:12:57;;;;;;;87.60;42.27;;;;;;;;;;6561641;28;20245;-88
2022/12/14 14:16:29;;;;;;;87.03;40.73;;;;;;;;;;6556675;28;20214;-87
2022/12/14 14:19:40;;;;;;;104.27;47.17;;;;;;;;;;6553157;28;20179;-85
2022/12/14 14:23:16;;;;;;;104.83;48.63;;;;;;;;;;6575805;28;20237;-86
2022/12/14 14:26:32;;;;;;;93.97;44.63;;;;;;;;;;6553724;28;20198;-86
2022/12/14 14:29:43;;;;;;;106.23;45.27;;;;;;;;;;6546934;28;20323;-86
2022/12/14 14:32:54;;;;;;;79.77;37.80;;;;;;;;;;6564125;28;20186;-86
2022/12/14 14:36:23;;;;;;;75.53;36.63;;;;;;;;;;6560317;28;20205;-85
2022/12/14 14:39:36;;;;;;;110.40;50.70;;;;;;;;;;6560805;28;20182;-85
2022/12/14 14:42:47;;;;;;;100.17;45.10;;;;;;;;;;6551662;28;20206;-86
2022/12/14 14:45:59;;;;;;;113.80;51.00;;;;;;;;;;6556662;28;20210;-86
2022/12/14 14:49:30;;;;;;;92.57;42.70;;;;;;;;;;6552105;28;20212;-85
2022/12/14 14:52:40;;;;;;;93.17;43.77;;;;;;;;;;6551340;28;20250;-85
2022/12/14 14:55:57;;;;;;;99.57;45.23;;;;;;;;;;6564810;28;20190;-86
2022/12/14 14:59:16;;;;;;;103.43;48.87;;;;;;;;;;6558263;28;20206;-86
2022/12/14 15:02:32;;;;;;;84.43;40.20;;;;;;;;;;6559496;28;20208;-86
2022/12/14 15:05:42;;;;;;;83.00;40.53;;;;;;;;;;6542223;28;20528;-86
2022/12/14 15:09:02;;;;;;;79.93;38.90;;;;;;;;;;6527857;28;20166;-86
2022/12/14 15:12:26;;;;;;;83.50;39.63;;;;;;;;;;6518082;28;20230;-86
2022/12/14 15:15:48;;;;;;;64.00;32.17;;;;;;;;;;6517168;28;20167;-86
2022/12/14 15:19:17;;;;;;;60.23;30.40;;;;;;;;;;6516242;28;20171;-86
2022/12/14 15:22:30;;;;;;;81.90;39.33;;;;;;;;;;6516614;28;20193;-86
2022/12/14 15:25:40;;;;;;;74.50;37.83;;;;;;;;;;6516202;28;20183;-86
2022/12/14 15:28:52;;;;;;;61.13;31.67;;;;;;;;;;6515703;28;20648;-86
2022/12/14 15:32:03;;;;;;;59.23;30.13;;;;;;;;;;6515651;28;20231;-86
2022/12/14 15:35:20;;;;;;;63.70;31.90;;;;;;;;;;6515743;28;20616;-86
2022/12/14 15:38:31;;;;;;;61.77;30.97;;;;;;;;;;6515591;28;20173;-86
2022/12/14 15:41:42;;;;;;;137.47;48.17;;;;;;;;;;6516651;28;20292;-86
2022/12/14 15:44:55;;;;;;;101.00;44.20;;;;;;;;;;6515358;28;20506;-86
2022/12/14 15:48:15;;;;;;;72.73;34.20;;;;;;;;;;6515355;28;20178;-86
2022/12/14 15:51:27;;;;;;;47.93;24.37;;;;;;;;;;6515524;28;20188;-86
2022/12/14 15:54:41;;;;;;;67.40;33.00;;;;;;;;;;6516460;28;20186;-86
2022/12/14 15:57:52;;;;;;;97.23;36.43;;;;;;;;;;6515695;28;20612;-87
2022/12/14 16:01:09;;;;;;;70.67;33.03;;;;;;;;;;6528254;28;20184;-86
2022/12/14 16:04:21;;;;;;;93.37;40.87;;;;;;;;;;6517822;28;20222;-86
2022/12/14 16:07:37;;;;;;;94.30;43.20;;;;;;;;;;6515391;28;20174;-86
2022/12/14 16:10:49;;;;;;;73.67;33.23;;;;;;;;;;6515767;28;20528;-86
2022/12/14 16:14:01;;;;;;;95.67;42.73;;;;;;;;;;6525585;28;20249;-87
2022/12/14 16:17:13;;;;;;;68.47;34.33;;;;;;;;;;6541131;28;20219;-86
2022/12/14 16:20:25;;;;;;;64.20;31.90;;;;;;;;;;6541036;28;20646;-86
2022/12/14 16:23:36;;;;;;;84.63;38.23;;;;;;;;;;6540579;28;20205;-86
2022/12/14 16:26:53;;;;;;;106.07;45.37;;;;;;;;;;6539269;28;20186;-86
2022/12/14 16:30:23;;;;;;;54.90;28.87;;;;;;;;;;6540881;28;20283;-86
2022/12/14 16:33:35;;;;;;;44.07;21.93;;;;;;;;;;6539860;28;20194;-86
2022/12/14 16:36:47;;;;;;;44.23;23.70;;;;;;;;;;6541538;28;20189;-86
2022/12/14 16:39:58;;;;;;;63.00;30.97;;;;;;;;;;6540277;28;20213;-86
2022/12/14 16:43:27;;;;;;;51.13;26.20;;;;;;;;;;6539943;28;20202;-86
2022/12/14 16:46:37;;;;;;;42.60;23.00;;;;;;;;;;6540326;28;20525;-86
2022/12/14 16:49:54;;;;;;;48.77;26.17;;;;;;;;;;6543290;28;20177;-86
2022/12/14 16:53:25;;;;;;;35.87;18.50;;;;;;;;;;6544604;28;20177;-86
2022/12/14 16:56:39;;;;;;;57.83;29.10;;;;;;;;;;6545117;28;20177;-86
2022/12/14 16:59:59;;;;;;;40.33;23.10;;;;;;;;;;6544901;28;20170;-86
2022/12/14 17:03:21;;;;;;;39.20;22.00;;;;;;;;;;6544314;28;20623;-86
2022/12/14 17:06:34;;;;;;;51.23;27.10;;;;;;;;;;6543964;28;20177;-86
2022/12/14 17:09:44;;;;;;;48.33;25.87;;;;;;;;;;6544264;28;20166;-86
2022/12/14 17:12:58;;;;;;;46.80;23.50;;;;;;;;;;6544051;28;20309;-86
2022/12/14 17:16:15;;;;;;;39.57;22.43;;;;;;;;;;6543722;28;20173;-86
2022/12/14 17:19:28;;;;;;;45.43;23.67;;;;;;;;;;6544586;28;20166;-86
2022/12/14 17:22:39;;;;;;;50.70;26.90;;;;;;;;;;6543958;28;20244;-86
2022/12/14 17:25:49;;;;;;;41.80;22.83;;;;;;;;;;6542760;28;20272;-86
2022/12/14 17:29:00;;;;;;;49.53;23.87;;;;;;;;;;6544157;28;20174;-86
2022/12/14 17:32:11;;;;;;;46.77;25.20;;;;;;;;;;6543448;28;20178;-86
2022/12/14 17:35:23;;;;;;;47.67;26.10;;;;;;;;;;6543838;28;20685;-86
2022/12/14 17:38:33;;;;;;;52.63;24.70;;;;;;;;;;6543482;28;20256;-86
2022/12/14 17:41:44;;;;;;;64.47;30.77;;;;;;;;;;6543604;28;20198;-86
2022/12/14 17:44:55;;;;;;;130.03;45.73;;;;;;;;;;6543134;28;20174;-86
2022/12/14 17:48:09;;;;;;;70.63;32.03;;;;;;;;;;6542832;28;20207;-86
2022/12/14 17:51:21;;;;;;;59.07;27.57;;;;;;;;;;6543729;28;20181;-86
2022/12/14 17:54:32;;;;;;;47.53;24.97;;;;;;;;;;6543441;28;20178;-86
2022/12/14 17:57:43;;;;;;;46.63;22.77;;;;;;;;;;6543372;28;20725;-86
2022/12/14 18:00:59;;;;;;;55.97;26.60;;;;;;;;;;6542853;28;20526;-86
2022/12/14 18:04:09;;;;;;;49.07;24.17;;;;;;;;;;6543081;28;20563;-86
2022/12/14 18:07:19;;;;;;;41.27;22.27;;;;;;;;;;6542787;28;20174;-86
2022/12/14 18:10:30;;;;;;;30.03;17.30;;;;;;;;;;6542779;28;20201;-86
2022/12/14 18:13:41;;;;;;;45.30;24.33;;;;;;;;;;6541577;28;20622;-86
2022/12/14 18:16:52;;;;;;;42.33;21.67;;;;;;;;;;6542917;28;20295;-86
2022/12/14 18:20:03;;;;;;;47.87;26.10;;;;;;;;;;6541682;28;20654;-86
2022/12/14 18:23:14;;;;;;;35.50;19.37;;;;;;;;;;6542776;28;20198;-86
2022/12/14 18:26:24;;;;;;;53.70;26.10;;;;;;;;;;6542890;28;20182;-86
2022/12/14 18:29:34;;;;;;;45.83;22.80;;;;;;;;;;6543371;28;20216;-86
2022/12/14 18:32:45;;;;;;;46.50;24.73;;;;;;;;;;6542704;28;20639;-86
2022/12/14 18:35:56;;;;;;;33.93;17.47;;;;;;;;;;6542197;28;20178;-86
2022/12/14 18:39:06;;;;;;;38.03;21.50;;;;;;;;;;6542114;28;20624;-86
2022/12/14 18:42:16;;;;;;;56.50;27.03;;;;;;;;;;6541834;28;20681;-86
2022/12/14 18:45:32;;;;;;;57.90;31.37;;;;;;;;;;6542322;28;20170;-86
2022/12/14 18:48:43;;;;;;;51.80;25.93;;;;;;;;;;6542483;28;20166;-86
2022/12/14 18:51:54;;;;;;;48.17;26.50;;;;;;;;;;6542182;28;20520;-86
2022/12/14 19:13:13;;;;;;;60.53;36.50;;;;;;;;;;6639794;27;20937;-81
2022/12/14 19:16:23;;;;;;;45.70;27.27;;;;;;;;;;6638553;28;20187;-81
2022/12/14 19:19:34;;;;;;;39.17;23.53;;;;;;;;;;6633888;28;20656;-81
2022/12/14 19:22:45;;;;;;;49.30;25.80;;;;;;;;;;6640849;28;20175;-81
2022/12/14 19:25:56;;;;;;;47.17;24.67;;;;;;;;;;6632052;28;20189;-81
2022/12/14 19:29:06;;;;;;;43.03;23.60;;;;;;;;;;6643003;28;20285;-81
2022/12/14 19:32:16;;;;;;;36.90;19.13;;;;;;;;;;6638861;28;20193;-81